Time;durP1;ratioP1;P1;durP2;ratioP2;P2;SDS_P1;SDS_P2;PMS_P1;PMS_P2;Temp;Humidity;BMP_temperature;BMP_pressure;BME280_temperature;BME280_humidity;BME280_pressure;Samples;Min_cycle;Max_cycle;Signal;HPM_P1;HPM_P2
2023/06/09 00:01:14;;;;;;;0.40;0.40;;;21.40;70.10;;;21.53;54.05;94693.13;5014625;28;20193;-36
2023/06/09 00:03:42;;;;;;;0.40;0.40;;;21.40;70.00;;;21.53;54.39;94700.31;5014565;28;20282;-36
2023/06/09 00:06:10;;;;;;;0.40;0.40;;;21.40;70.00;;;21.51;54.43;94689.91;5013624;28;20207;-36
2023/06/09 00:08:37;;;;;;;0.35;0.35;;;21.40;70.10;;;21.51;54.61;94694.47;5014239;28;20524;-36
2023/06/09 00:11:04;;;;;;;0.40;0.40;;;21.40;70.10;;;21.51;54.12;94705.13;5014345;28;20220;-36
2023/06/09 00:13:31;;;;;;;0.30;0.30;;;21.40;70.00;;;21.49;54.56;94700.06;5014357;28;20317;-36
2023/06/09 00:15:58;;;;;;;0.50;0.50;;;21.40;70.10;;;21.49;54.45;94709.94;4997060;28;20628;-36
2023/06/09 00:18:25;;;;;;;0.40;0.40;;;21.40;70.10;;;21.47;54.60;94701.38;5013548;28;20198;-36
2023/06/09 00:20:52;;;;;;;0.38;0.38;;;21.40;70.10;;;21.46;54.44;94699.78;5014875;28;20233;-36
2023/06/09 00:23:19;;;;;;;0.40;0.40;;;21.40;70.10;;;21.44;54.65;94697.38;5013960;28;20650;-36
2023/06/09 00:25:47;;;;;;;0.40;0.40;;;21.40;70.10;;;21.43;54.52;94701.94;5013852;28;20203;-36
2023/06/09 00:28:14;;;;;;;0.40;0.40;;;21.30;70.10;;;21.43;54.57;94696.59;4996941;28;20189;-36
2023/06/09 00:30:41;;;;;;;0.30;0.30;;;21.30;70.10;;;21.43;54.13;94701.94;5014374;28;20568;-36
2023/06/09 00:33:08;;;;;;;0.40;0.40;;;21.30;70.10;;;21.45;54.10;94699.00;5013832;28;20660;-36
2023/06/09 00:35:35;;;;;;;0.43;0.43;;;21.30;70.10;;;21.43;54.11;94693.09;5013933;28;20224;-36
2023/06/09 00:38:03;;;;;;;0.50;0.50;;;21.30;70.10;;;21.42;54.42;94686.97;4997361;28;20295;-36
2023/06/09 00:40:30;;;;;;;0.30;0.30;;;21.30;70.10;;;21.41;54.68;94697.91;4996489;28;20226;-36
2023/06/09 00:42:59;;;;;;;0.40;0.40;;;21.30;70.00;;;21.39;54.41;94690.16;5013567;28;20188;-36
2023/06/09 00:45:26;;;;;;;0.35;0.35;;;21.30;70.10;;;21.39;54.64;94700.84;5013907;28;20193;-36
2023/06/09 00:47:54;;;;;;;0.38;0.38;;;21.30;70.00;;;21.38;54.39;94698.44;5013452;28;20189;-36
2023/06/09 00:50:22;;;;;;;0.40;0.40;;;21.30;70.00;;;21.37;54.39;94692.31;4996364;28;20198;-36
2023/06/09 00:52:51;;;;;;;0.40;0.40;;;21.30;70.00;;;21.37;54.33;94683.50;4996112;28;20221;-36
2023/06/09 00:55:19;;;;;;;0.40;0.40;;;21.20;69.90;;;21.36;54.22;94676.56;5013753;28;20226;-36
2023/06/09 00:57:55;;;;;;;0.40;0.40;;;21.20;70.00;;;21.34;54.47;94684.03;5081127;28;20224;-36
2023/06/09 01:00:26;;;;;;;0.43;0.43;;;21.20;70.00;;;21.32;54.47;94678.16;4996285;28;20519;-36
2023/06/09 01:03:02;;;;;;;0.50;0.50;;;21.20;70.00;;;21.30;54.70;94686.44;4996064;28;20574;-36
2023/06/09 01:05:39;;;;;;;0.50;0.50;;;21.20;70.00;;;21.30;54.27;94690.97;5013609;28;20258;-36
2023/06/09 01:08:37;;;;;;;0.40;0.40;;;21.20;70.00;;;21.24;54.32;94680.28;4996731;28;20664;-36
2023/06/09 01:11:30;;;;;;;0.40;0.40;;;21.20;70.00;;;21.23;54.43;94684.03;4996233;28;20222;-36
2023/06/09 01:14:13;;;;;;;0.40;0.40;;;21.10;69.90;;;21.21;54.14;94675.47;4996169;28;20186;-36
2023/06/09 01:17:16;;;;;;;0.40;0.40;;;21.20;69.90;;;21.20;54.11;94676.56;4980002;28;20192;-36
2023/06/09 01:19:51;;;;;;;0.40;0.40;;;21.10;69.90;;;21.19;54.43;94674.97;5013279;28;20204;-36
2023/06/09 01:22:55;;;;;;;0.40;0.40;;;21.20;70.00;;;21.18;54.58;94672.53;4995757;28;20196;-36
2023/06/09 01:25:38;;;;;;;0.40;0.40;;;21.10;69.90;;;21.15;54.48;94673.06;5013419;28;20183;-36
2023/06/09 01:28:13;;;;;;;0.40;0.40;;;21.10;69.90;;;21.16;54.65;94669.34;4996077;28;20616;-36
2023/06/09 01:30:42;;;;;;;0.40;0.40;;;21.10;70.00;;;21.16;54.72;94674.69;4996277;28;20497;-36
2023/06/09 01:33:15;;;;;;;0.40;0.40;;;21.10;70.00;;;21.15;54.33;94673.06;5012855;28;20258;-36
2023/06/09 01:35:43;;;;;;;0.40;0.40;;;21.10;70.00;;;21.16;54.47;94677.34;4995800;28;20204;-36
2023/06/09 01:38:11;;;;;;;0.43;0.43;;;21.00;69.90;;;21.17;54.35;94671.75;5012905;28;20224;-36
2023/06/09 01:40:38;;;;;;;0.45;0.45;;;21.10;70.00;;;21.18;54.61;94677.88;5013121;28;20200;-36
2023/06/09 01:43:06;;;;;;;0.50;0.50;;;21.00;69.90;;;21.17;54.65;94676.28;5012649;28;20647;-36
2023/06/09 01:45:36;;;;;;;0.30;0.30;;;21.00;70.00;;;21.18;54.45;94675.19;5012783;28;20239;-36
2023/06/09 01:48:36;;;;;;;0.40;0.40;;;21.00;69.90;;;21.15;54.37;94678.41;5012061;28;20744;-36
2023/06/09 01:51:12;;;;;;;0.47;0.47;;;21.00;69.80;;;21.14;54.23;94676.81;5012689;28;20262;-36
2023/06/09 01:53:59;;;;;;;0.50;0.50;;;21.00;69.80;;;21.15;54.46;94681.06;4996031;28;20187;-36
2023/06/09 01:56:50;;;;;;;0.40;0.40;;;21.00;69.90;;;21.12;54.45;94677.06;5012541;28;20176;-36
2023/06/09 01:59:30;;;;;;;0.40;0.40;;;21.00;69.80;;;21.11;54.43;94672.78;5011830;28;20607;-36
2023/06/09 02:02:01;;;;;;;0.40;0.40;;;21.00;69.80;;;21.12;54.28;94677.06;4996261;28;20271;-36
2023/06/09 02:04:30;;;;;;;0.40;0.40;;;21.00;69.80;;;21.13;54.25;94672.53;4979008;28;20306;-36
2023/06/09 02:06:59;;;;;;;0.40;0.40;;;21.00;69.90;;;21.12;54.61;94679.75;5012446;28;20194;-36
2023/06/09 02:09:27;;;;;;;0.40;0.40;;;21.00;69.90;;;21.11;54.23;94675.47;4995353;28;20247;-36
2023/06/09 02:11:54;;;;;;;0.40;0.40;;;21.00;69.90;;;21.12;54.19;94682.41;5012690;28;20226;-37
2023/06/09 02:14:22;;;;;;;0.45;0.45;;;21.00;69.80;;;21.13;54.35;94685.84;5011338;28;20334;-36
2023/06/09 02:16:53;;;;;;;0.40;0.40;;;21.00;69.90;;;21.11;54.61;94678.91;4995125;28;20199;-36
2023/06/09 02:19:20;;;;;;;0.45;0.45;;;21.00;69.90;;;21.11;54.07;94665.59;5012624;28;20184;-36
2023/06/09 02:21:47;;;;;;;0.43;0.43;;;21.00;69.90;;;21.11;54.27;94665.59;5012277;28;20193;-36
2023/06/09 02:24:15;;;;;;;0.50;0.50;;;21.00;69.80;;;21.11;54.21;94659.47;4994958;28;20214;-36
2023/06/09 02:26:42;;;;;;;0.50;0.50;;;21.00;69.90;;;21.10;54.30;94665.84;5012247;28;20256;-36
2023/06/09 02:29:10;;;;;;;0.43;0.43;;;21.00;69.90;;;21.08;54.06;94663.47;4994999;28;20654;-36
2023/06/09 02:31:38;;;;;;;0.40;0.40;;;21.00;69.90;;;21.09;54.67;94678.41;4994925;28;20353;-36
2023/06/09 02:34:06;;;;;;;0.40;0.40;;;21.00;70.00;;;21.09;54.49;94674.91;4994697;28;20577;-36
2023/06/09 02:36:37;;;;;;;0.50;0.50;;;21.00;70.00;;;21.09;54.48;94672.25;4994881;28;20202;-36
2023/06/09 02:39:05;;;;;;;0.40;0.40;;;21.00;70.00;;;21.10;54.39;94665.84;5012316;28;20207;-36
2023/06/09 02:41:32;;;;;;;0.40;0.40;;;21.00;70.00;;;21.09;54.63;94666.91;5012318;28;20231;-36
2023/06/09 02:44:00;;;;;;;0.40;0.40;;;21.00;69.90;;;21.07;54.33;94651.19;4994623;28;20208;-36
2023/06/09 02:46:29;;;;;;;0.40;0.40;;;20.90;69.80;;;21.07;54.21;94647.75;5062893;28;20240;-36
2023/06/09 02:48:56;;;;;;;0.40;0.40;;;20.90;69.90;;;21.06;54.23;94654.13;5010857;28;20240;-36
2023/06/09 02:51:24;;;;;;;0.40;0.40;;;21.00;69.90;;;21.05;54.62;94649.84;4994632;28;20228;-36
2023/06/09 02:53:51;;;;;;;0.40;0.40;;;21.00;69.90;;;21.04;54.61;94656.25;4994607;28;20218;-36
2023/06/09 02:56:18;;;;;;;0.47;0.47;;;20.90;69.80;;;21.04;54.45;94648.25;5012407;28;20280;-36
2023/06/09 02:58:51;;;;;;;0.40;0.40;;;20.90;69.90;;;21.02;54.45;94651.19;5010789;28;20712;-36
2023/06/09 03:01:20;;;;;;;0.50;0.50;;;20.90;69.90;;;21.03;54.39;94643.97;5014551;28;20198;-36
2023/06/09 03:03:50;;;;;;;0.40;0.40;;;20.90;69.80;;;21.03;54.52;94654.66;5015384;28;20489;-36
2023/06/09 03:06:19;;;;;;;0.40;0.40;;;20.90;69.80;;;20.99;54.30;94651.69;5015460;28;20202;-36
2023/06/09 03:08:46;;;;;;;0.40;0.40;;;20.90;69.80;;;21.01;54.53;94654.13;5065283;28;20200;-36
2023/06/09 03:11:14;;;;;;;0.43;0.43;;;20.90;69.80;;;21.00;54.35;94644.53;5014119;28;20657;-36
2023/06/09 03:13:41;;;;;;;0.40;0.40;;;20.90;69.80;;;21.00;54.31;94645.31;4997735;28;20395;-36
2023/06/09 03:16:08;;;;;;;0.45;0.45;;;20.90;70.00;;;20.98;54.54;94642.09;4997859;28;20210;-36
2023/06/09 03:18:36;;;;;;;0.50;0.50;;;20.90;69.90;;;20.98;54.45;94644.75;5014092;28;20208;-36
2023/06/09 03:21:04;;;;;;;0.40;0.40;;;20.90;69.90;;;20.96;53.98;94646.91;5083155;28;20197;-36
2023/06/09 03:23:34;;;;;;;0.47;0.47;;;20.90;69.90;;;20.94;54.30;94647.16;5014039;28;20193;-36
2023/06/09 03:26:02;;;;;;;0.40;0.40;;;20.90;69.90;;;20.93;54.67;94647.44;5013851;28;20204;-36
2023/06/09 03:28:31;;;;;;;0.40;0.40;;;20.90;69.90;;;20.92;54.32;94651.16;5014328;28;20702;-36
2023/06/09 03:30:58;;;;;;;0.40;0.40;;;20.90;69.80;;;20.90;54.55;94651.44;4997553;28;20645;-36
2023/06/09 03:33:26;;;;;;;0.40;0.40;;;20.80;69.80;;;20.90;54.60;94645.31;4997500;28;20220;-36
2023/06/09 03:35:55;;;;;;;0.40;0.40;;;20.80;69.80;;;20.88;54.23;94648.22;4998335;28;20218;-36
2023/06/09 03:38:25;;;;;;;0.40;0.40;;;20.80;69.80;;;20.87;54.66;94653.81;4998041;28;20198;-36
2023/06/09 03:40:52;;;;;;;0.50;0.50;;;20.80;69.90;;;20.87;54.53;94653.81;5014675;28;20196;-36
2023/06/09 03:43:21;;;;;;;0.47;0.47;;;20.80;69.80;;;20.86;54.53;94658.34;4997354;28;20197;-36
2023/06/09 03:45:49;;;;;;;0.45;0.45;;;20.80;69.90;;;20.85;54.15;94653.28;5014720;28;20682;-36
2023/06/09 03:48:17;;;;;;;0.40;0.40;;;20.70;69.80;;;20.83;54.31;94658.88;5014262;28;20582;-36
2023/06/09 03:50:45;;;;;;;0.50;0.50;;;20.80;69.90;;;20.84;54.26;94668.47;4997363;28;20200;-36
2023/06/09 03:53:12;;;;;;;0.40;0.40;;;20.80;69.90;;;20.83;54.51;94660.75;4997015;28;20659;-36
2023/06/09 03:55:40;;;;;;;0.40;0.40;;;20.80;69.90;;;20.82;54.45;94659.13;5013593;28;20271;-36
2023/06/09 03:58:10;;;;;;;0.40;0.40;;;20.80;69.90;;;20.82;54.71;94667.94;5014608;28;20204;-36
2023/06/09 04:00:39;;;;;;;0.40;0.40;;;20.70;69.90;;;20.82;54.63;94654.59;4997200;28;20207;-36
2023/06/09 04:03:09;;;;;;;0.50;0.50;;;20.70;69.90;;;20.81;54.47;94658.31;4981230;28;20200;-36
2023/06/09 04:05:37;;;;;;;0.43;0.43;;;20.70;69.90;;;20.82;54.60;94662.59;5014294;28;20632;-36
2023/06/09 04:08:04;;;;;;;0.40;0.40;;;20.70;69.90;;;20.84;54.80;94662.34;4997097;28;20278;-36
2023/06/09 04:10:31;;;;;;;0.40;0.40;;;20.70;69.90;;;20.83;54.41;94664.19;5014769;28;20197;-36
2023/06/09 04:12:59;;;;;;;0.40;0.40;;;20.70;70.00;;;20.85;54.44;94663.94;4996899;28;20216;-36
2023/06/09 04:15:26;;;;;;;0.40;0.40;;;20.70;70.00;;;20.85;54.59;94658.59;4996769;28;20330;-36
2023/06/09 04:17:57;;;;;;;0.50;0.50;;;20.70;70.10;;;20.86;54.67;94665.53;5013280;28;20201;-36
2023/06/09 04:20:29;;;;;;;0.40;0.40;;;20.80;70.10;;;20.87;54.60;94661.81;4981504;28;20183;-36
2023/06/09 04:22:58;;;;;;;0.43;0.43;;;20.70;70.10;;;20.88;54.26;94660.75;5013136;28;20289;-36
2023/06/09 04:25:28;;;;;;;0.45;0.45;;;20.70;70.00;;;20.88;54.71;94666.09;4996693;28;20239;-36
2023/06/09 04:28:03;;;;;;;0.50;0.50;;;20.70;70.00;;;20.87;54.34;94659.16;4996879;28;20204;-36
2023/06/09 04:30:34;;;;;;;0.40;0.40;;;20.70;70.00;;;20.88;54.62;94658.09;4996707;28;20290;-36
2023/06/09 04:33:03;;;;;;;0.40;0.40;;;20.70;70.00;;;20.88;54.68;94664.22;5012888;28;20557;-36
2023/06/09 04:35:31;;;;;;;0.40;0.40;;;20.70;70.00;;;20.88;54.63;94666.09;5012779;28;20204;-36
2023/06/09 04:38:03;;;;;;;0.40;0.40;;;20.80;70.10;;;20.88;54.68;94661.53;5013876;28;20639;-36
2023/06/09 04:40:32;;;;;;;0.40;0.40;;;20.80;70.10;;;20.89;54.86;94665.81;4996622;28;20197;-36
2023/06/09 04:43:01;;;;;;;0.40;0.40;;;20.80;70.20;;;20.90;54.85;94661.31;4996498;28;20681;-36
2023/06/09 04:45:34;;;;;;;0.43;0.43;;;20.80;70.20;;;20.92;54.52;94661.81;4996453;28;20206;-36
2023/06/09 04:48:07;;;;;;;0.38;0.38;;;20.80;70.20;;;20.92;54.40;94657.31;4996149;28;20236;-36
2023/06/09 04:50:37;;;;;;;0.40;0.40;;;20.80;70.20;;;20.93;54.33;94655.44;5014201;28;20201;-36
2023/06/09 04:53:06;;;;;;;0.45;0.45;;;20.80;70.20;;;20.94;54.92;94657.03;4996313;28;20224;-36
2023/06/09 04:55:38;;;;;;;0.43;0.43;;;20.80;70.20;;;20.95;54.48;94658.63;5013560;28;20180;-36
2023/06/09 04:58:06;;;;;;;0.45;0.45;;;20.80;70.20;;;20.97;54.64;94658.38;5012417;28;20197;-36
2023/06/09 05:00:35;;;;;;;0.40;0.40;;;20.80;70.30;;;20.97;54.61;94656.53;4996405;28;20581;-36
2023/06/09 05:03:03;;;;;;;0.50;0.50;;;20.80;70.20;;;20.98;54.94;94660.75;5012493;28;20329;-36
2023/06/09 05:05:30;;;;;;;0.40;0.40;;;20.80;70.20;;;20.98;54.54;94651.97;4995997;28;20296;-36
2023/06/09 05:07:59;;;;;;;0.40;0.40;;;20.80;70.20;;;20.98;54.40;94655.44;4996165;28;20303;-36
2023/06/09 05:10:28;;;;;;;0.50;0.50;;;20.80;70.20;;;20.98;54.67;94657.31;4996115;28;20291;-35
2023/06/09 05:12:55;;;;;;;0.47;0.47;;;20.80;70.20;;;20.99;54.51;94653.59;5013237;28;20300;-36
2023/06/09 05:15:23;;;;;;;0.50;0.50;;;20.80;70.20;;;20.99;54.55;94653.59;5063668;28;20205;-36
2023/06/09 05:17:51;;;;;;;0.40;0.40;;;20.90;70.20;;;20.98;54.71;94657.31;5062890;28;20227;-36
2023/06/09 05:20:19;;;;;;;0.43;0.43;;;20.90;70.20;;;21.00;54.97;94652.53;4995968;28;20573;-36
2023/06/09 05:22:47;;;;;;;0.40;0.40;;;20.90;70.30;;;21.00;54.75;94655.97;4995395;28;20263;-36
2023/06/09 05:25:16;;;;;;;0.50;0.50;;;20.90;70.30;;;20.99;54.65;94659.69;5012174;28;20209;-36
2023/06/09 05:27:45;;;;;;;0.47;0.47;;;20.90;70.30;;;21.01;54.80;94659.47;5012944;28;20212;-36
2023/06/09 05:30:14;;;;;;;0.40;0.40;;;20.90;70.40;;;21.01;55.08;94657.59;4995700;28;20296;-36
2023/06/09 05:32:42;;;;;;;0.50;0.50;;;20.90;70.30;;;21.01;55.00;94652.25;5013162;28;20311;-36
2023/06/09 05:35:09;;;;;;;0.40;0.40;;;20.90;70.40;;;21.03;55.15;94659.97;5013017;28;20210;-36
2023/06/09 05:37:50;;;;;;;0.50;0.50;;;20.90;70.40;;;21.03;54.65;94659.97;4996466;28;20533;-36
2023/06/09 05:40:21;;;;;;;0.40;0.40;;;20.90;70.40;;;21.03;54.87;94666.13;4996502;28;20197;-36
2023/06/09 05:42:49;;;;;;;0.38;0.38;;;20.90;70.40;;;21.04;54.87;94664.25;5013121;28;20193;-36
2023/06/09 05:45:17;;;;;;;0.50;0.50;;;21.00;70.40;;;21.04;55.21;94665.03;5013418;28;20214;-36
2023/06/09 05:47:44;;;;;;;0.40;0.40;;;20.90;70.40;;;21.06;54.85;94670.13;5012787;28;20205;-36
2023/06/09 05:50:11;;;;;;;0.40;0.40;;;21.00;70.50;;;21.06;55.38;94665.59;5012842;28;20569;-36
2023/06/09 05:52:38;;;;;;;0.43;0.43;;;21.00;70.50;;;21.06;54.95;94670.13;5012673;28;20252;-36
2023/06/09 05:55:06;;;;;;;0.50;0.50;;;21.00;70.50;;;21.06;55.06;94659.47;5012659;28;20295;-36
2023/06/09 05:57:33;;;;;;;0.47;0.47;;;21.00;70.50;;;21.09;55.25;94664.25;5012866;28;20201;-36
2023/06/09 06:00:07;;;;;;;0.45;0.45;;;21.00;70.60;;;21.10;55.33;94676.53;5011748;28;20580;-36
2023/06/09 06:02:42;;;;;;;0.40;0.40;;;21.00;70.60;;;21.11;55.37;94678.13;5012969;28;20223;-35
2023/06/09 06:05:09;;;;;;;0.40;0.40;;;21.00;70.60;;;21.12;55.09;94671.75;5012567;28;20215;-35
2023/06/09 06:07:37;;;;;;;0.40;0.40;;;21.00;70.60;;;21.14;55.44;94682.94;5012646;28;20637;-35
2023/06/09 06:10:06;;;;;;;0.32;0.32;;;21.10;70.70;;;21.15;55.39;94679.19;5012750;28;20193;-35
2023/06/09 06:12:34;;;;;;;0.45;0.45;;;21.10;70.70;;;21.16;55.54;94677.34;5012307;28;20214;-35
2023/06/09 06:15:01;;;;;;;0.40;0.40;;;21.10;70.80;;;21.20;55.41;94675.75;5012379;28;20587;-35
2023/06/09 06:17:28;;;;;;;0.47;0.47;;;21.10;70.70;;;21.21;55.38;94674.69;5012505;28;20202;-35
2023/06/09 06:19:56;;;;;;;0.50;0.50;;;21.10;70.70;;;21.22;54.98;94676.28;5012319;28;20198;-35
2023/06/09 06:22:24;;;;;;;0.43;0.43;;;21.10;70.80;;;21.24;55.03;94682.97;5012308;28;20288;-35
2023/06/09 06:24:51;;;;;;;0.50;0.50;;;21.10;70.70;;;21.27;55.16;94685.06;5012234;28;20205;-35
2023/06/09 06:27:18;;;;;;;0.40;0.40;;;21.10;70.70;;;21.25;55.63;94678.41;5012467;28;20274;-35
2023/06/09 06:29:45;;;;;;;0.40;0.40;;;21.20;70.80;;;21.31;55.45;94681.91;5012202;28;20205;-35
2023/06/09 06:32:12;;;;;;;0.47;0.47;;;21.20;70.80;;;21.32;55.44;94689.63;5011940;28;20303;-35
2023/06/09 06:34:40;;;;;;;0.40;0.40;;;21.30;70.90;;;21.34;55.23;94694.72;5013836;28;20198;-40
2023/06/09 06:37:07;;;;;;;0.40;0.40;;;21.20;71.70;;;21.36;55.15;94690.72;5015642;28;20289;-35
2023/06/09 06:39:34;;;;;;;0.52;0.52;;;21.30;70.90;;;21.38;55.09;94690.44;5015662;28;20197;-35
2023/06/09 06:42:01;;;;;;;0.40;0.40;;;21.30;70.90;;;21.40;55.33;94696.31;5015485;28;20222;-35
2023/06/09 06:44:35;;;;;;;0.30;0.30;;;21.30;70.80;;;21.42;55.34;94696.84;4998401;28;20295;-35
2023/06/09 06:47:02;;;;;;;0.40;0.40;;;21.30;70.80;;;21.44;55.58;94697.38;5015517;28;20236;-35
2023/06/09 06:49:29;;;;;;;0.40;0.40;;;21.30;70.80;;;21.46;55.42;94697.94;5015376;28;20234;-35
2023/06/09 06:51:56;;;;;;;0.40;0.40;;;21.40;71.00;;;21.47;55.35;94693.38;5015510;28;20255;-35
2023/06/09 06:54:24;;;;;;;0.50;0.50;;;21.40;70.90;;;21.49;55.33;94692.03;5015341;28;20278;-35
2023/06/09 06:56:51;;;;;;;0.38;0.38;;;21.40;70.90;;;21.52;55.26;94682.69;4998136;28;20210;-35
2023/06/09 06:59:18;;;;;;;0.40;0.40;;;21.40;71.00;;;21.54;55.45;94680.56;5015355;28;20217;-35
2023/06/09 07:01:46;;;;;;;0.40;0.40;;;21.40;71.00;;;21.56;55.67;94684.59;5015465;28;20641;-35
2023/06/09 07:04:13;;;;;;;0.50;0.50;;;21.40;71.00;;;21.58;55.37;94687.00;5015362;28;20204;-35
2023/06/09 07:06:41;;;;;;;0.40;0.40;;;21.50;71.00;;;21.60;55.59;94692.88;5015347;28;20686;-36
2023/06/09 07:09:08;;;;;;;0.40;0.40;;;21.50;70.90;;;21.63;55.26;94680.88;5015168;28;20281;-36
2023/06/09 07:11:37;;;;;;;0.47;0.47;;;21.50;70.90;;;21.64;55.63;94693.16;5014999;28;20200;-37
2023/06/09 07:14:04;;;;;;;0.40;0.40;;;21.50;70.80;;;21.67;55.55;94684.63;5015073;28;20649;-36
2023/06/09 07:16:31;;;;;;;0.40;0.40;;;21.50;70.90;;;21.67;55.27;94684.63;5015075;28;20590;-36
2023/06/09 07:18:58;;;;;;;0.47;0.47;;;21.60;70.90;;;21.69;55.14;94685.94;5015314;28;20691;-36
2023/06/09 07:21:25;;;;;;;0.40;0.40;;;21.60;70.90;;;21.72;55.47;94697.97;5014971;28;20653;-36
2023/06/09 07:23:52;;;;;;;0.30;0.30;;;21.60;71.00;;;21.72;55.44;94689.94;5015407;28;20271;-37
2023/06/09 07:26:19;;;;;;;0.40;0.40;;;21.60;70.90;;;21.72;55.19;94685.41;5015016;28;20201;-36
2023/06/09 07:28:46;;;;;;;0.30;0.30;;;21.60;70.90;;;21.74;55.17;94687.81;5015421;28;20217;-36
2023/06/09 07:31:15;;;;;;;0.40;0.40;;;21.60;70.90;;;21.75;55.20;94692.06;5014838;28;20220;-37
2023/06/09 07:33:43;;;;;;;0.40;0.40;;;21.60;70.90;;;21.76;55.49;94693.69;5014998;28;20240;-37
2023/06/09 07:36:11;;;;;;;0.40;0.40;;;21.60;70.80;;;21.77;55.30;94692.63;5014773;28;20300;-36
2023/06/09 07:38:39;;;;;;;0.35;0.35;;;21.70;70.90;;;21.81;55.18;94695.56;5014690;28;20610;-36
2023/06/09 07:41:06;;;;;;;0.40;0.40;;;21.70;70.90;;;21.81;55.14;94696.34;5015248;28;20203;-36
2023/06/09 07:43:33;;;;;;;0.40;0.40;;;21.70;70.90;;;21.83;55.29;94698.75;5014489;28;20290;-37
2023/06/09 07:46:00;;;;;;;0.40;0.40;;;21.70;70.90;;;21.80;55.04;94688.59;5013951;28;20206;-37
2023/06/09 07:48:27;;;;;;;0.40;0.40;;;21.70;70.90;;;21.86;55.44;94693.69;5014561;28;20546;-36
2023/06/09 07:50:56;;;;;;;0.40;0.40;;;21.70;70.90;;;21.89;55.16;94692.34;5014463;28;20543;-36
2023/06/09 07:53:28;;;;;;;0.40;0.40;;;21.70;70.90;;;21.90;55.03;94693.94;5014367;28;20279;-36
2023/06/09 07:55:57;;;;;;;0.47;0.47;;;21.80;71.00;;;21.91;55.41;94696.34;5013565;28;20211;-37
2023/06/09 07:58:24;;;;;;;0.40;0.40;;;21.80;70.90;;;21.92;54.95;94691.78;5014405;28;20202;-36
2023/06/09 08:00:52;;;;;;;0.40;0.40;;;21.80;70.90;;;21.95;55.06;94691.28;5014930;28;20625;-36
2023/06/09 08:03:19;;;;;;;0.40;0.40;;;21.80;70.90;;;21.97;55.24;94688.31;5014578;28;20216;-37
2023/06/09 08:05:47;;;;;;;0.32;0.32;;;21.80;70.90;;;22.00;55.31;94693.13;5014352;28;20660;-36
2023/06/09 08:08:15;;;;;;;0.30;0.30;;;21.80;70.90;;;22.01;55.24;94692.06;5014283;28;20226;-37
2023/06/09 08:10:42;;;;;;;0.50;0.50;;;21.80;70.90;;;22.03;55.01;94696.06;5014222;28;20237;-36
2023/06/09 08:13:10;;;;;;;0.30;0.30;;;21.90;71.00;;;22.04;55.18;94694.97;5014242;28;20252;-37
2023/06/09 08:15:37;;;;;;;0.40;0.40;;;21.90;70.90;;;22.07;54.67;94683.78;5081507;28;20201;-36
2023/06/09 08:18:05;;;;;;;0.40;0.40;;;21.90;70.80;;;22.09;55.11;94688.84;5014145;28;20227;-37
2023/06/09 08:20:32;;;;;;;0.40;0.40;;;22.00;70.90;;;22.11;55.41;94693.94;5014349;28;20201;-37
2023/06/09 08:23:00;;;;;;;0.50;0.50;;;22.00;70.80;;;22.12;54.82;94695.50;5013268;28;20193;-35
2023/06/09 08:25:27;;;;;;;0.40;0.40;;;22.00;70.90;;;22.15;55.18;94689.63;5014298;28;20290;-36
2023/06/09 08:27:54;;;;;;;0.30;0.30;;;22.00;70.80;;;22.16;55.17;94697.38;5014226;28;20242;-36
2023/06/09 08:30:21;;;;;;;0.38;0.38;;;22.00;70.90;;;22.18;54.90;94694.41;5013940;28;20281;-36
2023/06/09 08:32:49;;;;;;;0.43;0.43;;;22.00;70.80;;;22.19;55.29;94694.16;5014155;28;20205;-36
2023/06/09 08:35:16;;;;;;;0.40;0.40;;;22.00;70.70;;;22.21;54.96;94697.34;5013990;28;20288;-36
2023/06/09 08:37:44;;;;;;;0.30;0.30;;;22.10;70.80;;;22.25;54.91;94696.81;5013848;28;20217;-36
2023/06/09 08:40:12;;;;;;;0.30;0.30;;;22.10;70.80;;;22.25;54.95;94699.50;5013797;28;20282;-36
2023/06/09 08:42:40;;;;;;;0.32;0.32;;;22.10;70.70;;;22.27;54.93;94700.81;5013624;28;20272;-35
2023/06/09 08:45:08;;;;;;;0.40;0.40;;;22.10;70.70;;;22.28;54.77;94696.28;5014083;28;20257;-35
2023/06/09 08:47:37;;;;;;;0.40;0.40;;;22.10;70.70;;;22.31;55.00;94701.09;5013954;28;20192;-36
2023/06/09 08:50:07;;;;;;;0.40;0.40;;;22.20;70.70;;;22.31;54.84;94699.19;5013467;28;20276;-37
2023/06/09 08:52:35;;;;;;;0.40;0.40;;;22.20;70.60;;;22.33;54.71;94697.06;4964036;28;20204;-35
2023/06/09 08:55:03;;;;;;;0.40;0.40;;;22.20;70.70;;;22.35;54.91;94705.63;4997040;28;20255;-36
2023/06/09 08:57:32;;;;;;;0.30;0.30;;;22.20;70.60;;;22.36;54.63;94693.88;4976001;28;20204;-36
2023/06/09 08:59:59;;;;;;;0.30;0.30;;;22.20;70.60;;;22.37;54.89;94695.47;5007770;28;20201;-35
2023/06/09 09:02:26;;;;;;;0.40;0.40;;;22.20;70.60;;;22.38;54.77;94694.41;5014162;28;20616;-36
2023/06/09 09:04:54;;;;;;;0.32;0.32;;;22.20;70.60;;;22.40;54.54;94702.16;5012737;28;20631;-36
2023/06/09 09:07:23;;;;;;;0.45;0.45;;;22.20;70.60;;;22.42;54.73;94704.56;5013537;28;20292;-36
2023/06/09 09:09:50;;;;;;;0.30;0.30;;;22.20;70.60;;;22.44;54.69;94697.09;5013912;28;20207;-35
2023/06/09 09:12:17;;;;;;;0.47;0.47;;;22.20;70.60;;;22.43;54.91;94696.25;5013349;28;20274;-36
2023/06/09 09:14:45;;;;;;;0.30;0.30;;;22.30;70.60;;;22.45;54.82;94695.97;5013170;28;20220;-37
2023/06/09 09:17:14;;;;;;;0.30;0.30;;;22.30;70.60;;;22.45;54.43;94696.81;5013063;28;20702;-37
2023/06/09 09:19:48;;;;;;;0.32;0.32;;;22.30;70.60;;;22.47;54.74;94702.69;4996137;28;20590;-37
2023/06/09 09:22:15;;;;;;;0.30;0.30;;;22.30;70.50;;;22.48;54.53;94700.81;4996656;28;20181;-37
2023/06/09 09:24:49;;;;;;;0.40;0.40;;;22.30;70.60;;;22.49;54.57;94694.38;5013062;28;20209;-37
2023/06/09 09:27:18;;;;;;;0.30;0.30;;;22.30;70.60;;;22.50;54.46;94704.00;5013290;28;20204;-36
2023/06/09 09:29:46;;;;;;;0.40;0.40;;;22.30;70.60;;;22.51;54.45;94701.06;5013051;28;20273;-37
2023/06/09 09:32:15;;;;;;;0.40;0.40;;;22.30;70.50;;;22.52;54.44;94701.84;5013320;28;20202;-37
2023/06/09 09:34:45;;;;;;;0.40;0.40;;;22.30;70.50;;;22.53;54.49;94704.25;5012897;28;20541;-37
2023/06/09 09:37:15;;;;;;;0.40;0.40;;;22.30;70.40;;;22.53;54.56;94696.25;5013233;28;20197;-37
2023/06/09 09:39:50;;;;;;;0.32;0.32;;;22.30;70.40;;;22.55;54.63;94699.44;5013364;28;20515;-37
2023/06/09 09:42:18;;;;;;;0.40;0.40;;;22.30;70.30;;;22.57;54.54;94693.00;4996556;28;20620;-39
2023/06/09 09:44:51;;;;;;;0.40;0.40;;;22.40;70.40;;;22.59;54.45;94701.56;5012801;28;20574;-37
2023/06/09 09:47:19;;;;;;;0.40;0.40;;;22.40;70.50;;;22.59;54.46;94702.34;5012750;28;20193;-37
2023/06/09 09:49:55;;;;;;;0.40;0.40;;;22.30;70.40;;;22.60;54.52;94697.81;5012647;28;20238;-37
2023/06/09 09:52:29;;;;;;;0.40;0.40;;;22.40;70.30;;;22.61;54.56;94694.09;5013087;28;20643;-36
2023/06/09 09:55:04;;;;;;;0.38;0.38;;;22.40;70.40;;;22.63;54.36;94691.91;5012474;28;20636;-36
2023/06/09 09:57:33;;;;;;;0.40;0.40;;;22.40;70.40;;;22.64;54.43;94688.19;5012709;28;20190;-37
2023/06/09 10:00:13;;;;;;;0.40;0.40;;;22.40;70.50;;;22.66;54.42;94694.84;5012610;28;20691;-37
2023/06/09 10:02:45;;;;;;;0.50;0.50;;;22.40;70.40;;;22.68;54.50;94686.56;4997337;28;20638;-37
2023/06/09 10:05:16;;;;;;;0.40;0.40;;;22.40;70.50;;;22.69;54.24;94685.47;5012498;28;20194;-35
2023/06/09 10:07:48;;;;;;;0.40;0.40;;;22.50;70.40;;;22.74;54.54;94690.00;5013108;28;20185;-36
2023/06/09 10:10:16;;;;;;;0.30;0.30;;;22.50;70.40;;;22.75;54.21;94680.91;5012855;28;20315;-36
2023/06/09 10:12:44;;;;;;;0.35;0.35;;;22.50;70.50;;;22.76;54.45;94682.53;5012405;28;20533;-36
2023/06/09 10:15:12;;;;;;;0.40;0.40;;;22.50;70.80;;;22.77;54.34;94681.44;4995163;28;20300;-36
2023/06/09 10:17:43;;;;;;;0.30;0.30;;;22.50;70.40;;;22.79;54.37;94677.44;4995524;28;20251;-36
2023/06/09 10:20:10;;;;;;;0.30;0.30;;;22.50;70.30;;;22.81;54.41;94680.63;5012341;28;20313;-36
2023/06/09 10:22:39;;;;;;;0.30;0.30;;;22.50;70.40;;;22.82;54.08;94684.88;5012271;28;20277;-36
2023/06/09 10:25:08;;;;;;;0.40;0.40;;;22.60;70.50;;;22.83;54.18;94678.47;4995279;28;20207;-36
2023/06/09 10:27:36;;;;;;;0.40;0.40;;;22.60;70.40;;;22.84;54.30;94682.75;5012173;28;20644;-36
2023/06/09 10:30:10;;;;;;;0.40;0.40;;;22.60;70.40;;;22.87;54.05;94684.06;5012437;28;20344;-35